Time;durP1;ratioP1;P1;durP2;ratioP2;P2;SDS_P1;SDS_P2;PMS_P1;PMS_P2;Temp;Humidity;BMP_temperature;BMP_pressure;BME280_temperature;BME280_humidity;BME280_pressure;Samples;Min_cycle;Max_cycle;Signal;HPM_P1;HPM_P2
2022/07/29 00:01:21;;;;;;;2.63;1.10;;;22.90;81.20;;;;;;5011101;28;20206;-22
2022/07/29 00:03:51;;;;;;;2.47;1.23;;;22.80;81.30;;;;;;5022103;28;20201;-22
2022/07/29 00:06:18;;;;;;;3.88;1.27;;;22.80;81.30;;;;;;5023746;28;20794;-22
2022/07/29 00:08:48;;;;;;;4.07;1.15;;;22.70;81.10;;;;;;5016896;28;20206;-22
2022/07/29 00:11:18;;;;;;;2.65;1.40;;;22.70;81.30;;;;;;5028476;28;20718;-25
2022/07/29 00:13:45;;;;;;;3.58;1.30;;;22.60;81.00;;;;;;5029479;28;20220;-25
2022/07/29 00:16:22;;;;;;;3.10;1.00;;;22.60;81.30;;;;;;5029767;28;20240;-25
2022/07/29 00:18:53;;;;;;;1.42;1.10;;;22.50;81.20;;;;;;5025120;28;20210;-25
2022/07/29 00:21:20;;;;;;;3.17;1.42;;;22.40;81.00;;;;;;5017299;28;20676;-25
2022/07/29 00:23:47;;;;;;;3.42;1.20;;;22.40;81.10;;;;;;5011166;28;20230;-25
2022/07/29 00:26:17;;;;;;;3.42;1.27;;;22.40;81.10;;;;;;5008398;28;20704;-25
2022/07/29 00:28:46;;;;;;;2.67;1.08;;;22.30;81.20;;;;;;5027699;28;20198;-25
2022/07/29 00:31:14;;;;;;;4.90;1.65;;;22.30;81.10;;;;;;5022917;28;20232;-25
2022/07/29 00:33:46;;;;;;;4.80;1.30;;;22.30;81.30;;;;;;5011340;28;20715;-25
2022/07/29 00:36:13;;;;;;;2.67;1.40;;;22.30;81.70;;;;;;5029142;28;20203;-25
2022/07/29 00:38:44;;;;;;;5.82;1.70;;;22.30;81.40;;;;;;5026844;28;20554;-25
2022/07/29 00:41:11;;;;;;;2.15;1.60;;;22.30;81.50;;;;;;5023407;28;20210;-25
2022/07/29 00:43:39;;;;;;;2.92;1.40;;;22.20;81.40;;;;;;5009637;28;20237;-25
2022/07/29 00:46:06;;;;;;;2.63;1.52;;;22.20;81.80;;;;;;5023754;28;20253;-25
2022/07/29 00:48:37;;;;;;;2.15;1.38;;;22.20;81.40;;;;;;5028532;28;20224;-25
2022/07/29 00:51:10;;;;;;;4.93;1.88;;;22.10;81.50;;;;;;5028772;28;20232;-25
2022/07/29 00:53:41;;;;;;;2.63;1.50;;;22.10;81.70;;;;;;5026401;28;20679;-25
2022/07/29 00:56:10;;;;;;;4.85;1.50;;;22.10;81.70;;;;;;5015358;28;20627;-25
2022/07/29 00:58:41;;;;;;;4.25;1.85;;;22.00;81.70;;;;;;5013905;28;20239;-25
2022/07/29 01:01:08;;;;;;;4.18;1.58;;;22.00;81.70;;;;;;5029906;28;20290;-25
2022/07/29 01:03:38;;;;;;;3.13;1.50;;;22.00;81.90;;;;;;5020821;28;20212;-25
2022/07/29 01:06:06;;;;;;;5.03;1.70;;;22.00;82.20;;;;;;5010974;28;20213;-25
2022/07/29 01:08:33;;;;;;;2.85;1.40;;;21.90;82.00;;;;;;5025927;28;20296;-25
2022/07/29 01:11:03;;;;;;;5.95;1.50;;;21.90;82.10;;;;;;5010339;28;20205;-25
2022/07/29 01:13:33;;;;;;;3.17;1.50;;;21.90;82.10;;;;;;5004154;28;20217;-25
2022/07/29 01:16:10;;;;;;;4.93;1.63;;;21.90;82.00;;;;;;5022372;28;20683;-22
2022/07/29 01:18:46;;;;;;;3.38;1.63;;;21.90;82.10;;;;;;5012972;28;21144;-22
2022/07/29 01:21:50;;;;;;;4.95;1.67;;;21.90;82.20;;;;;;5016064;28;20209;-22
2022/07/29 01:24:56;;;;;;;3.00;1.83;;;21.80;82.40;;;;;;5014137;28;20209;-23
2022/07/29 01:27:39;;;;;;;3.15;1.40;;;21.80;82.30;;;;;;5017084;28;20577;-23
2022/07/29 01:30:08;;;;;;;4.28;1.55;;;21.80;82.20;;;;;;5027590;28;20220;-23
2022/07/29 01:32:40;;;;;;;1.42;1.30;;;21.80;82.10;;;;;;5013373;28;20732;-22
2022/07/29 01:35:15;;;;;;;4.85;1.83;;;21.80;82.30;;;;;;5007530;28;20213;-25
2022/07/29 01:37:57;;;;;;;3.33;1.60;;;21.80;82.40;;;;;;5012369;28;20207;-25
2022/07/29 01:40:30;;;;;;;4.32;2.00;;;21.70;82.50;;;;;;5013628;28;20276;-25
2022/07/29 01:43:03;;;;;;;6.43;2.08;;;21.70;82.50;;;;;;5009378;28;20235;-25
2022/07/29 01:45:38;;;;;;;4.05;1.60;;;21.70;82.40;;;;;;5012678;28;20220;-25
2022/07/29 01:48:31;;;;;;;4.22;1.63;;;21.70;82.50;;;;;;5009577;28;20287;-25
2022/07/29 01:51:16;;;;;;;4.30;1.60;;;21.70;83.00;;;;;;5009692;28;20637;-25
2022/07/29 01:54:06;;;;;;;2.75;1.83;;;21.60;82.50;;;;;;5010019;28;20194;-25
2022/07/29 01:56:40;;;;;;;3.63;1.38;;;21.60;82.90;;;;;;5009398;28;20209;-25
2022/07/29 01:59:11;;;;;;;3.17;1.30;;;21.50;82.50;;;;;;5011638;28;20356;-25
2022/07/29 02:01:44;;;;;;;4.57;1.40;;;21.50;82.50;;;;;;5030316;28;20220;-25
2022/07/29 02:04:12;;;;;;;2.80;1.35;;;21.50;82.80;;;;;;5012323;28;20239;-25
2022/07/29 02:07:01;;;;;;;2.72;1.42;;;21.50;82.70;;;;;;5015610;28;20299;-25
2022/07/29 02:09:31;;;;;;;2.72;1.50;;;21.50;82.80;;;;;;5009718;28;20194;-25
2022/07/29 02:12:01;;;;;;;5.70;1.70;;;21.40;82.50;;;;;;5016707;28;20201;-25
2022/07/29 02:14:32;;;;;;;2.88;1.70;;;21.40;82.80;;;;;;5020725;28;20680;-25
2022/07/29 02:17:03;;;;;;;3.58;1.67;;;21.40;83.00;;;;;;5007994;28;20209;-25
2022/07/29 02:19:33;;;;;;;3.25;1.60;;;21.30;82.60;;;;;;5008861;28;20208;-25
2022/07/29 02:22:01;;;;;;;2.22;1.40;;;21.30;82.90;;;;;;5011018;28;20553;-25
2022/07/29 02:24:30;;;;;;;3.38;1.83;;;21.30;83.00;;;;;;5020199;28;20197;-25
2022/07/29 02:27:03;;;;;;;2.60;1.42;;;21.30;83.20;;;;;;5024702;28;20311;-25
2022/07/29 02:29:32;;;;;;;5.88;1.60;;;21.20;82.80;;;;;;5010283;28;20316;-25
2022/07/29 02:32:02;;;;;;;4.75;1.50;;;21.20;83.60;;;;;;5006778;28;20206;-24
2022/07/29 02:34:34;;;;;;;2.42;1.50;;;21.20;83.50;;;;;;5011006;28;20213;-26
2022/07/29 02:37:09;;;;;;;2.90;1.40;;;21.20;83.00;;;;;;5009236;28;20197;-25
2022/07/29 02:39:41;;;;;;;3.25;1.65;;;21.20;83.20;;;;;;5012268;28;20300;-25
2022/07/29 02:42:13;;;;;;;4.20;1.80;;;21.10;83.30;;;;;;5026114;28;20209;-25
2022/07/29 02:44:43;;;;;;;1.92;1.48;;;21.10;83.50;;;;;;5011885;28;20216;-25
2022/07/29 02:47:24;;;;;;;4.03;1.75;;;21.10;83.00;;;;;;5016139;28;20699;-25
2022/07/29 02:50:03;;;;;;;2.47;1.70;;;21.00;83.20;;;;;;5022660;28;20212;-25
2022/07/29 02:52:38;;;;;;;2.00;1.40;;;21.00;83.30;;;;;;5011014;28;20205;-25
2022/07/29 02:55:22;;;;;;;2.95;1.92;;;20.90;82.80;;;;;;5020131;28;20382;-25
2022/07/29 02:57:57;;;;;;;2.28;1.50;;;20.90;83.00;;;;;;5016429;28;20204;-25
2022/07/29 03:00:28;;;;;;;1.75;1.50;;;20.90;83.10;;;;;;5023256;28;20205;-25
2022/07/29 03:03:03;;;;;;;1.50;1.40;;;20.90;83.10;;;;;;5010111;28;20236;-25
2022/07/29 03:05:32;;;;;;;2.17;1.60;;;20.80;83.10;;;;;;5008372;28;20229;-25
2022/07/29 03:08:09;;;;;;;3.47;1.50;;;20.80;83.20;;;;;;5007646;28;20209;-25
2022/07/29 03:10:39;;;;;;;6.65;1.60;;;20.70;83.80;;;;;;5018232;28;20205;-25
2022/07/29 03:13:07;;;;;;;4.10;1.60;;;20.70;83.00;;;;;;5012895;28;20301;-27
2022/07/29 03:15:35;;;;;;;6.05;1.58;;;20.70;83.10;;;;;;5023545;28;20220;-26
2022/07/29 03:18:05;;;;;;;3.95;2.20;;;20.70;83.10;;;;;;5025197;28;20296;-24
2022/07/29 03:20:33;;;;;;;2.53;1.40;;;20.70;83.20;;;;;;5024005;28;20204;-25
2022/07/29 03:23:02;;;;;;;2.47;1.70;;;20.60;83.10;;;;;;5016097;28;20210;-25
2022/07/29 03:25:30;;;;;;;3.75;1.70;;;20.60;83.10;;;;;;5010290;28;20264;-26
2022/07/29 03:27:59;;;;;;;1.75;1.30;;;20.60;83.10;;;;;;5016977;28;20292;-25
2022/07/29 03:30:27;;;;;;;3.28;1.63;;;20.60;83.10;;;;;;5014017;28;20229;-25
2022/07/29 03:33:00;;;;;;;3.35;1.50;;;20.60;83.20;;;;;;5014610;28;20652;-25
2022/07/29 03:35:29;;;;;;;4.72;1.70;;;20.60;83.30;;;;;;5011791;28;20208;-25
2022/07/29 03:37:57;;;;;;;2.88;1.77;;;20.60;83.30;;;;;;5020157;28;20205;-26
2022/07/29 03:40:51;;;;;;;3.05;1.70;;;20.50;83.30;;;;;;5012041;28;20206;-25
2022/07/29 03:43:21;;;;;;;3.00;1.35;;;20.50;83.60;;;;;;5012553;28;20217;-25
2022/07/29 03:45:56;;;;;;;3.28;1.60;;;20.40;83.80;;;;;;5012101;28;20229;-25
2022/07/29 03:48:26;;;;;;;2.03;1.42;;;20.40;83.60;;;;;;5013004;28;20201;-25
2022/07/29 03:50:56;;;;;;;4.13;1.52;;;20.30;83.30;;;;;;5012803;28;20289;-25
2022/07/29 03:53:23;;;;;;;2.38;1.30;;;20.30;83.40;;;;;;5016204;28;20251;-25
2022/07/29 03:55:54;;;;;;;4.00;1.85;;;20.30;83.40;;;;;;5045664;28;20295;-25
2022/07/29 03:58:27;;;;;;;2.58;1.45;;;20.30;83.50;;;;;;5031011;28;20772;-25
2022/07/29 04:00:55;;;;;;;3.15;1.80;;;20.20;83.30;;;;;;5009201;28;20272;-25
2022/07/29 04:03:25;;;;;;;3.08;1.50;;;20.20;83.50;;;;;;5019622;28;20300;-25
2022/07/29 04:06:08;;;;;;;5.47;1.85;;;20.20;83.50;;;;;;5018989;28;20379;-25
2022/07/29 04:08:40;;;;;;;4.53;1.35;;;20.10;83.80;;;;;;5021213;28;20232;-25
2022/07/29 04:11:07;;;;;;;3.05;1.40;;;20.10;83.50;;;;;;5031001;28;20739;-25
2022/07/29 04:13:34;;;;;;;3.10;1.80;;;20.00;83.40;;;;;;5021090;28;20554;-25
2022/07/29 04:16:02;;;;;;;2.17;1.45;;;20.00;83.40;;;;;;5011532;28;22473;-25
2022/07/29 04:18:31;;;;;;;3.30;1.40;;;20.00;83.60;;;;;;5011347;28;20249;-25
2022/07/29 04:21:01;;;;;;;3.33;1.42;;;19.90;83.40;;;;;;5011882;28;20197;-25
2022/07/29 04:23:32;;;;;;;5.82;1.90;;;19.90;83.40;;;;;;5013398;28;20549;-25
2022/07/29 04:26:00;;;;;;;3.88;1.50;;;19.80;83.60;;;;;;5009540;28;20228;-25
2022/07/29 04:28:28;;;;;;;5.20;1.65;;;19.80;83.60;;;;;;5023892;28;20233;-25
2022/07/29 04:30:55;;;;;;;2.22;1.88;;;19.80;83.60;;;;;;5016763;28;20217;-25
2022/07/29 04:33:22;;;;;;;3.83;1.83;;;19.80;83.70;;;;;;5023453;28;20201;-25
2022/07/29 04:35:51;;;;;;;2.38;1.83;;;19.70;83.90;;;;;;5013744;28;20767;-25
2022/07/29 04:38:21;;;;;;;2.53;1.85;;;19.70;83.90;;;;;;5011414;28;20675;-25
2022/07/29 04:40:49;;;;;;;2.50;1.73;;;19.60;84.10;;;;;;5026140;28;20304;-25
2022/07/29 04:43:19;;;;;;;4.28;1.88;;;19.60;83.80;;;;;;5026683;28;20213;-25
2022/07/29 04:45:52;;;;;;;3.65;1.70;;;19.60;84.30;;;;;;5013945;28;20229;-25
2022/07/29 04:48:24;;;;;;;2.15;1.60;;;19.60;84.00;;;;;;5009587;28;20288;-26
2022/07/29 04:50:59;;;;;;;2.33;1.90;;;19.60;84.00;;;;;;5010823;28;20296;-25
2022/07/29 04:53:29;;;;;;;1.92;1.73;;;19.60;84.00;;;;;;5009873;28;20209;-25
2022/07/29 04:55:59;;;;;;;3.13;1.90;;;19.60;84.10;;;;;;5017362;28;20220;-25
2022/07/29 04:58:31;;;;;;;2.88;1.98;;;19.60;84.10;;;;;;5029732;28;20264;-25
2022/07/29 05:01:03;;;;;;;2.67;2.08;;;19.60;84.10;;;;;;5025494;28;20267;-25
2022/07/29 05:03:31;;;;;;;5.07;1.83;;;19.60;84.30;;;;;;5015735;28;20308;-25
2022/07/29 05:06:00;;;;;;;3.08;1.63;;;19.60;84.40;;;;;;5017633;28;20276;-26
2022/07/29 05:08:30;;;;;;;1.65;1.52;;;19.70;84.50;;;;;;5024926;28;20569;-23
2022/07/29 05:10:57;;;;;;;3.92;1.80;;;19.70;84.50;;;;;;5024789;28;20691;-23
2022/07/29 05:13:40;;;;;;;4.63;2.33;;;19.70;84.60;;;;;;5015023;28;20682;-23
2022/07/29 05:16:14;;;;;;;2.92;1.77;;;19.70;84.70;;;;;;5015552;28;20231;-23
2022/07/29 05:18:44;;;;;;;3.90;1.90;;;19.70;84.70;;;;;;5019274;28;20204;-25
2022/07/29 05:21:14;;;;;;;3.90;1.80;;;19.80;85.00;;;;;;5014695;28;20218;-25
2022/07/29 05:23:41;;;;;;;4.32;1.70;;;19.80;85.00;;;;;;5020977;28;20304;-25
2022/07/29 05:26:11;;;;;;;3.80;1.90;;;19.80;84.90;;;;;;5016143;28;20249;-25
2022/07/29 05:28:38;;;;;;;3.63;1.80;;;19.80;85.00;;;;;;5026108;28;20201;-25
2022/07/29 05:31:06;;;;;;;3.40;2.00;;;19.80;85.00;;;;;;5020565;28;20222;-25
2022/07/29 05:33:36;;;;;;;2.58;2.10;;;19.80;85.00;;;;;;5018881;28;20252;-25
2022/07/29 05:36:12;;;;;;;2.58;2.10;;;19.90;85.10;;;;;;5020304;28;20299;-23
2022/07/29 05:38:44;;;;;;;4.88;2.33;;;19.90;85.30;;;;;;5008518;28;20209;-23
2022/07/29 05:41:11;;;;;;;4.82;2.50;;;19.90;85.30;;;;;;5014655;28;20329;-23
2022/07/29 05:43:38;;;;;;;2.13;1.85;;;20.00;85.40;;;;;;5018943;28;20204;-22
2022/07/29 05:46:05;;;;;;;3.50;2.30;;;20.00;85.40;;;;;;5012414;28;20225;-23
2022/07/29 05:48:33;;;;;;;4.47;2.58;;;20.10;85.50;;;;;;5010644;28;20208;-23
2022/07/29 05:51:03;;;;;;;4.72;2.40;;;20.10;85.50;;;;;;5020986;28;20295;-23
2022/07/29 05:53:33;;;;;;;3.67;2.20;;;20.10;85.50;;;;;;5008320;28;20532;-23
2022/07/29 05:56:06;;;;;;;4.93;2.60;;;20.20;85.70;;;;;;5039836;28;20224;-23
2022/07/29 05:58:33;;;;;;;5.57;2.28;;;20.20;85.80;;;;;;5014045;28;20233;-23
2022/07/29 06:01:00;;;;;;;3.60;2.05;;;20.30;85.80;;;;;;5015900;28;20211;-23
2022/07/29 06:03:30;;;;;;;3.38;2.22;;;20.30;85.90;;;;;;5018145;28;20704;-25
2022/07/29 06:05:57;;;;;;;4.32;2.70;;;20.30;85.90;;;;;;5018571;28;20307;-25
2022/07/29 06:08:27;;;;;;;3.15;2.38;;;20.40;86.10;;;;;;5020887;28;20205;-25
2022/07/29 06:10:59;;;;;;;4.00;2.67;;;20.40;86.00;;;;;;5014624;28;20232;-25
2022/07/29 06:13:29;;;;;;;5.18;2.35;;;20.40;86.10;;;;;;5026386;28;20251;-25
2022/07/29 06:15:59;;;;;;;3.10;2.75;;;20.50;86.40;;;;;;5013885;28;20236;-25
2022/07/29 06:18:26;;;;;;;5.50;2.53;;;20.50;86.40;;;;;;5012763;28;20205;-25
2022/07/29 06:20:56;;;;;;;3.03;2.60;;;20.50;86.20;;;;;;5016859;28;20271;-25
2022/07/29 06:23:23;;;;;;;4.35;2.90;;;20.50;86.50;;;;;;5009255;28;20224;-25
2022/07/29 06:25:55;;;;;;;6.13;2.33;;;20.50;86.50;;;;;;5018069;28;20233;-25
2022/07/29 06:28:25;;;;;;;4.05;2.28;;;20.50;86.30;;;;;;5023709;28;20557;-25
2022/07/29 06:30:55;;;;;;;3.63;2.28;;;20.50;86.50;;;;;;5024602;28;20209;-25
2022/07/29 06:33:22;;;;;;;4.28;2.22;;;20.50;86.40;;;;;;5022794;28;20223;-26
2022/07/29 06:35:50;;;;;;;4.60;2.53;;;20.50;86.40;;;;;;5011121;28;20206;-25
2022/07/29 06:38:21;;;;;;;5.20;2.42;;;20.50;86.50;;;;;;5022642;28;20204;-25
2022/07/29 06:41:01;;;;;;;6.15;3.20;;;20.60;86.70;;;;;;5012095;28;20248;-25
2022/07/29 06:43:33;;;;;;;3.22;2.72;;;20.60;87.50;;;;;;5006631;28;20671;-24
2022/07/29 06:46:03;;;;;;;3.88;2.75;;;20.60;87.00;;;;;;5007512;28;20688;-25
2022/07/29 06:48:34;;;;;;;5.88;2.92;;;20.60;87.00;;;;;;5008753;28;20225;-25
2022/07/29 06:51:07;;;;;;;3.22;2.75;;;20.60;86.80;;;;;;5021021;28;20224;-25
2022/07/29 06:53:35;;;;;;;3.92;2.72;;;20.60;86.90;;;;;;5010252;28;20252;-25
2022/07/29 06:56:04;;;;;;;8.88;4.05;;;20.60;87.00;;;;;;5013378;28;20268;-25
2022/07/29 06:58:34;;;;;;;6.68;2.75;;;20.60;87.00;;;;;;5032491;28;20332;-25
2022/07/29 07:01:04;;;;;;;6.38;3.08;;;20.60;87.20;;;;;;5029476;28;20773;-25
2022/07/29 07:03:33;;;;;;;4.50;2.85;;;20.60;87.10;;;;;;5011553;28;20684;-25
2022/07/29 07:06:01;;;;;;;4.28;2.67;;;20.60;87.00;;;;;;5025765;28;20790;-25
2022/07/29 07:08:28;;;;;;;4.95;2.28;;;20.60;87.30;;;;;;5012974;28;20212;-25
2022/07/29 07:10:56;;;;;;;3.85;2.45;;;20.60;87.30;;;;;;5018454;28;20671;-25
2022/07/29 07:13:26;;;;;;;3.75;2.80;;;20.70;87.40;;;;;;5015651;28;20443;-25
2022/07/29 07:15:53;;;;;;;5.47;3.00;;;20.70;87.70;;;;;;5010225;28;20202;-25
2022/07/29 07:18:23;;;;;;;6.28;2.92;;;20.70;87.90;;;;;;5012935;28;20259;-24
2022/07/29 07:20:52;;;;;;;6.25;2.60;;;20.70;87.70;;;;;;5015559;28;20197;-25
2022/07/29 07:23:19;;;;;;;4.30;2.53;;;20.80;87.80;;;;;;5013649;28;20971;-25
2022/07/29 07:25:49;;;;;;;4.47;2.80;;;20.80;87.80;;;;;;5028476;28;20319;-30
2022/07/29 07:28:18;;;;;;;5.70;2.75;;;20.90;88.10;;;;;;5012922;28;20229;-25
2022/07/29 07:30:56;;;;;;;3.63;2.60;;;20.90;88.00;;;;;;5028657;28;20303;-25
2022/07/29 07:33:24;;;;;;;4.18;2.80;;;21.00;88.30;;;;;;5029631;28;20207;-25
2022/07/29 07:35:51;;;;;;;3.03;2.53;;;21.00;88.40;;;;;;5010893;28;20639;-24
2022/07/29 07:38:21;;;;;;;5.47;3.05;;;21.00;88.40;;;;;;5013052;28;20197;-25
2022/07/29 07:40:48;;;;;;;5.15;3.05;;;21.10;89.10;;;;;;5015377;28;20221;-25
2022/07/29 07:43:16;;;;;;;3.38;2.80;;;21.10;88.60;;;;;;5023798;28;20205;-24
2022/07/29 07:45:43;;;;;;;5.63;2.50;;;21.10;88.50;;;;;;5028446;28;20190;-25
2022/07/29 07:48:13;;;;;;;3.58;2.40;;;21.10;88.50;;;;;;5022667;28;20225;-25
2022/07/29 07:50:45;;;;;;;4.32;2.55;;;21.10;88.50;;;;;;5011129;28;20252;-25
2022/07/29 07:53:18;;;;;;;2.85;2.42;;;21.20;88.60;;;;;;5022850;28;20735;-25
2022/07/29 07:55:48;;;;;;;4.47;2.97;;;21.30;88.80;;;;;;5019360;28;20660;-24
2022/07/29 07:58:35;;;;;;;3.78;2.67;;;21.30;88.80;;;;;;5019381;28;20715;-25
2022/07/29 08:01:05;;;;;;;3.13;2.63;;;21.30;89.50;;;;;;5024343;28;20671;-25
2022/07/29 08:03:33;;;;;;;5.57;3.08;;;21.40;89.20;;;;;;5022214;28;20197;-25
2022/07/29 08:06:05;;;;;;;5.03;3.28;;;21.40;89.50;;;;;;5025261;28;20732;-31
2022/07/29 08:08:33;;;;;;;3.85;2.20;;;21.40;90.00;;;;;;5019231;28;20260;-22
2022/07/29 08:11:03;;;;;;;3.00;2.55;;;21.40;89.40;;;;;;5018931;28;20229;-22
2022/07/29 08:13:36;;;;;;;3.38;2.70;;;21.40;89.40;;;;;;5011826;28;20291;-22
2022/07/29 08:16:14;;;;;;;2.95;2.50;;;21.50;89.40;;;;;;5020503;28;20293;-22
2022/07/29 08:18:43;;;;;;;3.53;2.60;;;21.50;89.40;;;;;;5013156;28;20257;-22
2022/07/29 08:21:10;;;;;;;5.25;2.85;;;21.60;89.60;;;;;;5012531;28;20226;-27
2022/07/29 08:23:50;;;;;;;3.85;2.60;;;21.60;89.60;;;;;;5016914;28;20263;-23
2022/07/29 08:26:25;;;;;;;3.80;2.72;;;21.60;89.60;;;;;;5025403;28;20224;-23
2022/07/29 08:28:57;;;;;;;6.60;3.30;;;21.70;89.80;;;;;;5018790;28;20752;-23
2022/07/29 08:31:25;;;;;;;3.95;2.95;;;21.80;90.00;;;;;;5010695;28;20220;-24
2022/07/29 08:33:56;;;;;;;4.20;2.75;;;21.80;89.90;;;;;;5021353;28;20569;-25
2022/07/29 08:36:32;;;;;;;4.75;2.67;;;21.80;90.00;;;;;;5028094;28;20213;-25
2022/07/29 08:39:01;;;;;;;4.63;2.42;;;21.80;90.00;;;;;;5013746;28;20215;-25
2022/07/29 08:41:31;;;;;;;3.10;2.10;;;21.90;90.00;;;;;;5015247;28;20232;-25
2022/07/29 08:43:58;;;;;;;7.65;2.60;;;21.90;90.00;;;;;;5018731;28;20229;-24
2022/07/29 08:46:25;;;;;;;4.53;2.70;;;22.00;90.10;;;;;;5016351;28;20216;-24
2022/07/29 08:48:55;;;;;;;3.35;2.45;;;22.00;90.20;;;;;;5017531;28;20193;-25
2022/07/29 08:51:23;;;;;;;3.08;2.60;;;22.10;90.10;;;;;;5014635;28;20201;-26
2022/07/29 08:53:50;;;;;;;6.30;2.97;;;22.10;90.10;;;;;;5019260;28;20291;-23
2022/07/29 08:56:19;;;;;;;4.28;2.63;;;22.20;90.20;;;;;;5020351;28;22885;-24
2022/07/29 08:58:49;;;;;;;3.30;2.15;;;22.20;90.20;;;;;;5014401;28;20288;-30
2022/07/29 09:01:23;;;;;;;5.50;2.60;;;22.30;90.20;;;;;;5018777;28;20671;-24
2022/07/29 09:04:05;;;;;;;6.80;2.67;;;22.30;90.30;;;;;;5013409;28;20202;-24
2022/07/29 09:06:37;;;;;;;6.15;2.20;;;22.40;90.30;;;;;;5018499;28;20201;-23
2022/07/29 09:09:07;;;;;;;3.55;1.98;;;22.40;90.30;;;;;;5015249;28;20197;-23
2022/07/29 09:11:35;;;;;;;3.63;1.90;;;22.50;90.40;;;;;;5017191;28;20224;-23
2022/07/29 09:14:02;;;;;;;2.60;1.95;;;22.50;90.40;;;;;;5018303;28;20296;-24
2022/07/29 09:16:51;;;;;;;4.03;2.10;;;22.60;90.40;;;;;;5016240;28;20201;-23
2022/07/29 09:19:28;;;;;;;3.20;1.98;;;22.60;90.50;;;;;;5014725;28;20603;-24
2022/07/29 09:21:57;;;;;;;1.55;1.45;;;22.70;90.50;;;;;;5016643;28;20237;-23
2022/07/29 09:24:39;;;;;;;3.35;1.90;;;22.70;90.40;;;;;;5017535;28;20290;-24
2022/07/29 09:27:29;;;;;;;3.28;1.75;;;22.80;90.60;;;;;;5009662;28;20606;-23
2022/07/29 09:30:06;;;;;;;4.40;2.10;;;22.80;90.50;;;;;;5010713;28;20619;-24
2022/07/29 09:32:53;;;;;;;5.03;2.20;;;22.90;90.60;;;;;;5014069;28;20733;-24
2022/07/29 09:35:25;;;;;;;2.67;1.70;;;22.90;90.50;;;;;;5011854;28;20259;-26
2022/07/29 09:37:53;;;;;;;3.38;1.63;;;23.00;90.50;;;;;;5008683;28;20252;-26
2022/07/29 09:40:23;;;;;;;2.40;2.20;;;23.00;90.50;;;;;;5015423;28;20201;-26
2022/07/29 09:42:56;;;;;;;4.28;1.55;;;23.10;90.60;;;;;;5005873;28;20620;-26
2022/07/29 09:45:31;;;;;;;2.90;1.60;;;23.10;90.60;;;;;;5014439;28;20559;-26
2022/07/29 09:48:02;;;;;;;4.45;1.88;;;23.20;90.70;;;;;;5015049;28;20255;-25
2022/07/29 09:50:40;;;;;;;4.47;2.53;;;23.30;90.70;;;;;;5011130;28;21141;-26
2022/07/29 09:53:11;;;;;;;2.50;1.50;;;23.30;90.70;;;;;;5012894;28;20323;-27
2022/07/29 09:55:49;;;;;;;1.45;1.33;;;23.30;90.60;;;;;;5016861;28;20193;-25
2022/07/29 09:58:19;;;;;;;1.45;1.30;;;23.40;90.70;;;;;;5017279;28;20243;-26
2022/07/29 10:00:50;;;;;;;2.92;1.50;;;23.50;90.70;;;;;;5011306;28;20367;-26
2022/07/29 10:03:18;;;;;;;2.58;1.90;;;23.50;90.60;;;;;;5014841;28;20210;-28
2022/07/29 10:05:46;;;;;;;1.83;1.38;;;23.60;90.50;;;;;;5014909;28;20208;-26
2022/07/29 10:08:13;;;;;;;2.33;1.40;;;23.70;90.60;;;;;;5016007;28;20240;-25
2022/07/29 10:11:08;;;;;;;2.25;1.63;;;23.70;90.60;;;;;;5011253;28;20221;-26
2022/07/29 10:13:35;;;;;;;2.75;1.50;;;23.80;90.60;;;;;;5016619;28;20283;-26
2022/07/29 10:16:02;;;;;;;1.30;1.17;;;23.80;90.60;;;;;;5016154;28;20739;-26
2022/07/29 10:18:32;;;;;;;4.13;1.48;;;23.80;90.60;;;;;;5014323;28;20206;-26
2022/07/29 10:21:03;;;;;;;3.13;1.75;;;23.90;90.60;;;;;;5014988;28;20219;-26
2022/07/29 10:23:31;;;;;;;2.20;1.45;;;24.00;90.60;;;;;;5013616;28;20883;-26
2022/07/29 10:26:14;;;;;;;2.63;1.60;;;24.00;90.30;;;;;;5015684;28;20208;-26
2022/07/29 10:28:43;;;;;;;2.50;1.30;;;24.00;90.30;;;;;;5015934;28;20248;-26
2022/07/29 10:31:26;;;;;;;2.42;1.30;;;24.00;90.30;;;;;;5014402;28;20576;-26
2022/07/29 10:34:07;;;;;;;3.90;1.40;;;24.00;90.30;;;;;;5014855;28;20675;-26
2022/07/29 10:36:49;;;;;;;2.25;1.45;;;24.10;90.40;;;;;;5014165;28;20340;-26
2022/07/29 10:39:36;;;;;;;1.48;1.23;;;24.10;90.20;;;;;;5016274;28;20212;-26
2022/07/29 10:42:20;;;;;;;4.07;1.38;;;24.20;90.40;;;;;;5005668;28;20220;-26
2022/07/29 10:45:03;;;;;;;2.20;1.50;;;24.30;90.40;;;;;;5016056;28;20201;-25
2022/07/29 10:47:33;;;;;;;3.05;1.50;;;24.30;90.40;;;;;;5014355;28;20681;-25
2022/07/29 10:50:06;;;;;;;2.80;1.42;;;24.40;90.50;;;;;;5010756;28;20256;-25
2022/07/29 10:52:52;;;;;;;2.60;1.60;;;24.50;90.50;;;;;;5012740;28;20556;-23
2022/07/29 10:55:48;;;;;;;1.40;1.30;;;24.50;90.40;;;;;;5007335;28;20319;-23
2022/07/29 10:58:20;;;;;;;2.22;1.45;;;24.50;90.50;;;;;;5013244;28;20245;-24
2022/07/29 11:00:51;;;;;;;1.75;1.17;;;24.60;90.40;;;;;;5011862;28;20421;-23
2022/07/29 11:03:51;;;;;;;2.75;1.38;;;24.70;90.50;;;;;;5014486;28;20229;-23
2022/07/29 11:07:07;;;;;;;3.75;1.55;;;24.70;90.40;;;;;;5014944;28;20236;-24
2022/07/29 11:09:35;;;;;;;2.85;1.50;;;24.80;90.20;;;;;;5005669;28;20273;-23
2022/07/29 11:12:38;;;;;;;4.03;1.60;;;24.90;90.40;;;;;;5010797;28;20679;-23
2022/07/29 11:15:21;;;;;;;4.93;1.42;;;24.90;90.50;;;;;;5015865;28;20209;-24
2022/07/29 11:17:53;;;;;;;4.78;1.77;;;25.00;90.30;;;;;;5016099;28;20201;-23
2022/07/29 11:20:44;;;;;;;3.83;1.23;;;25.00;90.30;;;;;;5013791;28;20275;-23
2022/07/29 11:23:26;;;;;;;3.03;1.55;;;25.00;90.40;;;;;;5014489;28;20242;-26
2022/07/29 11:26:22;;;;;;;2.58;1.30;;;25.10;90.50;;;;;;5013346;28;20221;-26
2022/07/29 11:29:05;;;;;;;2.72;1.50;;;25.10;90.50;;;;;;5014203;28;20213;-25
2022/07/29 11:31:41;;;;;;;3.17;1.50;;;25.20;90.00;;;;;;5013079;28;20263;-26
2022/07/29 11:34:21;;;;;;;2.83;1.60;;;25.20;90.00;;;;;;5015821;28;20213;-25
2022/07/29 11:37:09;;;;;;;2.95;1.50;;;25.20;90.00;;;;;;5016630;28;20215;-25
2022/07/29 11:39:37;;;;;;;2.75;1.30;;;25.20;90.00;;;;;;5016678;28;20209;-25
2022/07/29 11:42:19;;;;;;;2.55;1.70;;;25.20;90.40;;;;;;5014833;28;20263;-25
2022/07/29 11:45:17;;;;;;;2.78;1.63;;;25.30;90.10;;;;;;5016532;28;21002;-24
2022/07/29 11:48:05;;;;;;;2.58;1.77;;;25.30;90.00;;;;;;5015437;28;20570;-23
2022/07/29 11:50:55;;;;;;;6.53;1.75;;;25.30;90.10;;;;;;5014304;28;20193;-23
2022/07/29 11:53:24;;;;;;;4.57;2.00;;;25.40;89.80;;;;;;5018487;28;20745;-24
2022/07/29 11:55:56;;;;;;;3.42;1.58;;;25.40;90.20;;;;;;5018661;28;20311;-24
2022/07/29 11:58:25;;;;;;;2.97;1.70;;;25.50;90.10;;;;;;5015472;28;20231;-24
2022/07/29 12:00:54;;;;;;;3.85;1.52;;;25.60;89.90;;;;;;5014773;28;20303;-24
2022/07/29 12:03:31;;;;;;;4.05;1.60;;;25.60;89.80;;;;;;5015630;28;20209;-24
2022/07/29 12:06:03;;;;;;;2.05;1.63;;;25.60;90.00;;;;;;5009507;28;20606;-24
2022/07/29 12:08:41;;;;;;;2.63;1.38;;;25.70;90.00;;;;;;5021059;28;20317;-24
2022/07/29 12:11:20;;;;;;;4.80;1.77;;;25.60;89.20;;;;;;5019787;28;20227;-23
2022/07/29 12:13:50;;;;;;;2.47;1.77;;;25.60;89.30;;;;;;5022536;28;20245;-23
2022/07/29 12:16:21;;;;;;;3.65;1.55;;;25.70;89.70;;;;;;5022112;28;20208;-23
2022/07/29 12:19:02;;;;;;;2.53;1.50;;;25.70;90.00;;;;;;5019170;28;20212;-24
2022/07/29 12:21:45;;;;;;;2.72;1.48;;;25.80;90.00;;;;;;5020833;28;20586;-24
2022/07/29 12:24:23;;;;;;;4.30;1.67;;;25.90;89.60;;;;;;5015424;28;20236;-24
2022/07/29 12:26:58;;;;;;;3.03;1.70;;;25.90;89.60;;;;;;5016908;28;20205;-23
2022/07/29 12:29:27;;;;;;;1.55;1.40;;;25.90;89.30;;;;;;5016520;28;20223;-24
2022/07/29 12:32:00;;;;;;;3.67;1.73;;;26.00;89.50;;;;;;5021209;28;20255;-24
2022/07/29 12:34:29;;;;;;;3.63;1.40;;;26.00;89.00;;;;;;5029884;28;20271;-24
2022/07/29 12:36:56;;;;;;;2.60;1.40;;;26.00;89.50;;;;;;5013804;28;20201;-23
2022/07/29 12:39:27;;;;;;;2.38;1.35;;;26.10;89.80;;;;;;5030110;28;20209;-23
2022/07/29 12:41:55;;;;;;;3.03;1.50;;;26.10;89.70;;;;;;5026054;28;20236;-24
2022/07/29 12:44:51;;;;;;;2.35;1.50;;;26.20;89.50;;;;;;5030348;28;20204;-24
2022/07/29 12:47:19;;;;;;;2.03;1.73;;;26.30;89.80;;;;;;5025220;28;20220;-23
2022/07/29 12:49:47;;;;;;;3.13;1.55;;;26.30;89.70;;;;;;5009209;28;20625;-23
2022/07/29 12:52:32;;;;;;;1.67;1.35;;;26.40;89.90;;;;;;5017359;28;20636;-24
2022/07/29 12:55:00;;;;;;;2.63;1.63;;;26.50;89.80;;;;;;5009897;28;20205;-24
2022/07/29 12:57:31;;;;;;;2.60;1.40;;;26.50;88.80;;;;;;5030584;28;20194;-24
2022/07/29 13:00:12;;;;;;;4.32;1.63;;;26.50;88.90;;;;;;5009732;28;20237;-24
2022/07/29 13:02:42;;;;;;;1.83;1.55;;;26.50;88.70;;;;;;5025137;28;20258;-24
2022/07/29 13:05:12;;;;;;;2.00;1.30;;;26.50;87.90;;;;;;5029126;28;20757;-24
2022/07/29 13:07:39;;;;;;;2.38;1.40;;;26.50;87.90;;;;;;5025291;28;20705;-24
2022/07/29 13:10:23;;;;;;;3.47;1.77;;;26.60;88.40;;;;;;5022547;28;20201;-24
2022/07/29 13:13:13;;;;;;;2.78;1.25;;;26.60;88.00;;;;;;5024061;28;20201;-24
2022/07/29 13:16:04;;;;;;;2.78;1.40;;;26.60;88.60;;;;;;5022258;28;20213;-23
2022/07/29 13:18:37;;;;;;;2.13;1.45;;;26.60;88.60;;;;;;5008214;28;20210;-24